KSEG/SEG METAR and TAF weather

Enter ICAO airport designator
Station Type Date Time Source
KSEG METAR 2020/01/28 20:53 UTC NOAA

KSEG 282053Z AUTO 33006KT 10SM OVC043 04/M04 A2990 RMK AO2 SLP129 T00391039 53004


Station Type Date Time Source
KSEG Decoded METAR 2020/01/28 20:53 UTC NOAA

SELINSGROVE PENN VALLEY AIRPORT , PA, United States (KSEG) 40-49N 076-52W 134M
Jan 28, 2020 - 03:53 PM EST / 2020.01.28 2053 UTC
Wind: from the NNW (330 degrees) at 7 MPH (6 KT):0
Visibility: 10 mile(s):0
Sky conditions: overcast
Temperature: 39.0 F (3.9 C)
Dew Point: 25.0 F (-3.9 C)
Relative Humidity: 56%
Pressure (altimeter): 29.9 in. Hg (1012 hPa)
Pressure tendency: 0.01 inches (0.4 hPa) higher than three hours ago
ob: KSEG 282053Z AUTO 33006KT 10SM OVC043 04/M04 A2990 RMK AO2 SLP129 T00391039 53004
cycle: 21

Station Type Date Time Source
KSEG TAF UTC NOAA

Error!

Example: see airport list